sensor_id;sensor_type;location;lat;lon;timestamp;P1;durP1;ratioP1;P2;durP2;ratioP2
19828;SDS011;10075;50.924;4.396;2024-03-08T00:01:16;27.53;;;16.80;;
19828;SDS011;10075;50.924;4.396;2024-03-08T00:03:44;26.77;;;16.40;;
19828;SDS011;10075;50.924;4.396;2024-03-08T00:06:11;24.00;;;15.73;;
19828;SDS011;10075;50.924;4.396;2024-03-08T00:08:38;30.23;;;17.17;;
19828;SDS011;10075;50.924;4.396;2024-03-08T00:11:06;30.43;;;16.37;;
19828;SDS011;10075;50.924;4.396;2024-03-08T00:13:34;29.30;;;16.37;;
19828;SDS011;10075;50.924;4.396;2024-03-08T00:16:01;27.80;;;17.47;;
19828;SDS011;10075;50.924;4.396;2024-03-08T00:18:29;28.30;;;17.20;;
19828;SDS011;10075;50.924;4.396;2024-03-08T00:20:56;30.37;;;17.70;;
19828;SDS011;10075;50.924;4.396;2024-03-08T00:23:23;25.73;;;16.30;;
19828;SDS011;10075;50.924;4.396;2024-03-08T00:25:50;28.27;;;17.27;;
19828;SDS011;10075;50.924;4.396;2024-03-08T00:28:18;30.77;;;17.93;;
19828;SDS011;10075;50.924;4.396;2024-03-08T00:30:45;30.03;;;17.43;;
19828;SDS011;10075;50.924;4.396;2024-03-08T00:33:12;31.37;;;17.63;;
19828;SDS011;10075;50.924;4.396;2024-03-08T00:35:40;28.30;;;17.80;;
19828;SDS011;10075;50.924;4.396;2024-03-08T00:38:07;29.27;;;18.40;;
19828;SDS011;10075;50.924;4.396;2024-03-08T00:40:34;30.07;;;18.07;;
19828;SDS011;10075;50.924;4.396;2024-03-08T00:43:01;30.00;;;18.00;;
19828;SDS011;10075;50.924;4.396;2024-03-08T00:45:30;30.67;;;18.93;;
19828;SDS011;10075;50.924;4.396;2024-03-08T00:47:57;30.57;;;18.07;;
19828;SDS011;10075;50.924;4.396;2024-03-08T00:50:25;32.60;;;19.80;;
19828;SDS011;10075;50.924;4.396;2024-03-08T00:52:52;31.70;;;18.20;;
19828;SDS011;10075;50.924;4.396;2024-03-08T00:55:19;35.17;;;18.13;;
19828;SDS011;10075;50.924;4.396;2024-03-08T00:57:46;32.53;;;19.63;;
19828;SDS011;10075;50.924;4.396;2024-03-08T01:00:14;44.03;;;19.50;;
19828;SDS011;10075;50.924;4.396;2024-03-08T01:02:43;35.77;;;19.37;;
19828;SDS011;10075;50.924;4.396;2024-03-08T01:05:10;34.53;;;19.73;;
19828;SDS011;10075;50.924;4.396;2024-03-08T01:07:37;34.00;;;20.87;;
19828;SDS011;10075;50.924;4.396;2024-03-08T01:10:05;31.47;;;19.70;;
19828;SDS011;10075;50.924;4.396;2024-03-08T01:12:34;38.07;;;20.20;;
19828;SDS011;10075;50.924;4.396;2024-03-08T01:15:01;35.93;;;21.17;;
19828;SDS011;10075;50.924;4.396;2024-03-08T01:17:28;33.77;;;19.77;;
19828;SDS011;10075;50.924;4.396;2024-03-08T01:19:57;35.23;;;20.10;;
19828;SDS011;10075;50.924;4.396;2024-03-08T01:22:24;33.60;;;20.77;;
19828;SDS011;10075;50.924;4.396;2024-03-08T01:24:53;33.73;;;20.77;;
19828;SDS011;10075;50.924;4.396;2024-03-08T01:27:20;32.77;;;19.50;;
19828;SDS011;10075;50.924;4.396;2024-03-08T01:29:47;29.67;;;19.73;;
19828;SDS011;10075;50.924;4.396;2024-03-08T01:32:14;33.73;;;20.93;;
19828;SDS011;10075;50.924;4.396;2024-03-08T01:34:41;40.17;;;21.53;;
19828;SDS011;10075;50.924;4.396;2024-03-08T01:37:11;36.80;;;20.57;;
19828;SDS011;10075;50.924;4.396;2024-03-08T01:39:39;32.93;;;20.67;;
19828;SDS011;10075;50.924;4.396;2024-03-08T01:42:06;33.70;;;20.97;;
19828;SDS011;10075;50.924;4.396;2024-03-08T01:44:34;39.87;;;21.10;;
19828;SDS011;10075;50.924;4.396;2024-03-08T01:47:01;36.10;;;21.93;;
19828;SDS011;10075;50.924;4.396;2024-03-08T01:49:28;31.60;;;19.40;;
19828;SDS011;10075;50.924;4.396;2024-03-08T01:51:55;32.03;;;20.40;;
19828;SDS011;10075;50.924;4.396;2024-03-08T01:54:24;33.23;;;20.80;;
19828;SDS011;10075;50.924;4.396;2024-03-08T01:56:52;34.80;;;22.17;;
19828;SDS011;10075;50.924;4.396;2024-03-08T01:59:19;33.77;;;21.07;;
19828;SDS011;10075;50.924;4.396;2024-03-08T02:01:46;33.80;;;20.87;;
19828;SDS011;10075;50.924;4.396;2024-03-08T02:04:14;32.70;;;21.30;;
19828;SDS011;10075;50.924;4.396;2024-03-08T02:06:44;33.27;;;21.50;;
19828;SDS011;10075;50.924;4.396;2024-03-08T02:09:12;33.53;;;21.57;;
19828;SDS011;10075;50.924;4.396;2024-03-08T02:11:41;36.77;;;23.13;;
19828;SDS011;10075;50.924;4.396;2024-03-08T02:14:08;33.33;;;21.00;;
19828;SDS011;10075;50.924;4.396;2024-03-08T02:16:36;35.67;;;22.33;;
19828;SDS011;10075;50.924;4.396;2024-03-08T02:19:04;32.87;;;21.60;;
19828;SDS011;10075;50.924;4.396;2024-03-08T02:21:35;35.40;;;21.60;;
19828;SDS011;10075;50.924;4.396;2024-03-08T02:24:03;32.83;;;21.30;;
19828;SDS011;10075;50.924;4.396;2024-03-08T02:26:31;30.97;;;21.30;;
19828;SDS011;10075;50.924;4.396;2024-03-08T02:28:58;34.07;;;21.50;;
19828;SDS011;10075;50.924;4.396;2024-03-08T02:31:25;33.17;;;21.93;;
19828;SDS011;10075;50.924;4.396;2024-03-08T02:33:52;33.63;;;21.30;;
19828;SDS011;10075;50.924;4.396;2024-03-08T02:36:19;39.80;;;22.13;;
19828;SDS011;10075;50.924;4.396;2024-03-08T02:38:48;34.17;;;22.57;;
19828;SDS011;10075;50.924;4.396;2024-03-08T02:41:15;34.33;;;22.43;;
19828;SDS011;10075;50.924;4.396;2024-03-08T02:43:42;32.47;;;22.07;;
19828;SDS011;10075;50.924;4.396;2024-03-08T02:46:10;32.57;;;22.43;;
19828;SDS011;10075;50.924;4.396;2024-03-08T02:48:37;32.73;;;22.97;;
19828;SDS011;10075;50.924;4.396;2024-03-08T02:51:05;33.40;;;22.07;;
19828;SDS011;10075;50.924;4.396;2024-03-08T02:53:32;35.83;;;23.37;;
19828;SDS011;10075;50.924;4.396;2024-03-08T02:56:01;37.53;;;23.63;;
19828;SDS011;10075;50.924;4.396;2024-03-08T02:58:29;36.10;;;24.10;;
19828;SDS011;10075;50.924;4.396;2024-03-08T03:00:56;35.20;;;22.90;;
19828;SDS011;10075;50.924;4.396;2024-03-08T03:03:23;34.17;;;24.23;;
19828;SDS011;10075;50.924;4.396;2024-03-08T03:05:51;34.40;;;23.13;;
19828;SDS011;10075;50.924;4.396;2024-03-08T03:08:20;35.03;;;23.90;;
19828;SDS011;10075;50.924;4.396;2024-03-08T03:10:47;32.90;;;22.80;;
19828;SDS011;10075;50.924;4.396;2024-03-08T03:13:16;37.67;;;24.43;;
19828;SDS011;10075;50.924;4.396;2024-03-08T03:15:45;36.30;;;24.70;;
19828;SDS011;10075;50.924;4.396;2024-03-08T03:18:13;36.43;;;24.00;;
19828;SDS011;10075;50.924;4.396;2024-03-08T03:20:40;38.13;;;24.17;;
19828;SDS011;10075;50.924;4.396;2024-03-08T03:23:07;36.43;;;24.90;;
19828;SDS011;10075;50.924;4.396;2024-03-08T03:25:38;36.67;;;24.73;;
19828;SDS011;10075;50.924;4.396;2024-03-08T03:28:06;38.53;;;24.57;;
19828;SDS011;10075;50.924;4.396;2024-03-08T03:30:37;33.33;;;23.87;;
19828;SDS011;10075;50.924;4.396;2024-03-08T03:33:04;39.37;;;24.40;;
19828;SDS011;10075;50.924;4.396;2024-03-08T03:35:32;37.40;;;23.87;;
19828;SDS011;10075;50.924;4.396;2024-03-08T03:37:59;40.23;;;25.17;;
19828;SDS011;10075;50.924;4.396;2024-03-08T03:40:32;35.77;;;23.70;;
19828;SDS011;10075;50.924;4.396;2024-03-08T03:42:59;40.27;;;25.00;;
19828;SDS011;10075;50.924;4.396;2024-03-08T03:45:26;38.43;;;25.00;;
19828;SDS011;10075;50.924;4.396;2024-03-08T03:47:55;37.70;;;24.70;;
19828;SDS011;10075;50.924;4.396;2024-03-08T03:50:22;38.97;;;25.13;;
19828;SDS011;10075;50.924;4.396;2024-03-08T03:52:49;40.50;;;25.20;;
19828;SDS011;10075;50.924;4.396;2024-03-08T03:55:17;39.83;;;24.67;;
19828;SDS011;10075;50.924;4.396;2024-03-08T03:57:44;38.23;;;25.00;;
19828;SDS011;10075;50.924;4.396;2024-03-08T04:00:12;37.77;;;25.47;;
19828;SDS011;10075;50.924;4.396;2024-03-08T04:02:40;37.27;;;24.77;;
19828;SDS011;10075;50.924;4.396;2024-03-08T04:05:09;35.37;;;25.13;;
19828;SDS011;10075;50.924;4.396;2024-03-08T04:07:37;37.60;;;25.10;;
19828;SDS011;10075;50.924;4.396;2024-03-08T04:10:05;36.27;;;25.13;;
19828;SDS011;10075;50.924;4.396;2024-03-08T04:12:33;40.13;;;25.00;;
19828;SDS011;10075;50.924;4.396;2024-03-08T04:15:01;37.50;;;25.80;;
19828;SDS011;10075;50.924;4.396;2024-03-08T04:17:28;38.70;;;24.83;;
19828;SDS011;10075;50.924;4.396;2024-03-08T04:19:55;39.30;;;25.67;;
19828;SDS011;10075;50.924;4.396;2024-03-08T04:22:23;38.27;;;24.43;;
19828;SDS011;10075;50.924;4.396;2024-03-08T04:24:50;34.27;;;24.50;;
19828;SDS011;10075;50.924;4.396;2024-03-08T04:27:17;37.73;;;24.87;;
19828;SDS011;10075;50.924;4.396;2024-03-08T04:29:44;34.50;;;24.30;;
19828;SDS011;10075;50.924;4.396;2024-03-08T04:32:11;37.43;;;25.87;;
19828;SDS011;10075;50.924;4.396;2024-03-08T04:34:38;39.83;;;24.53;;
19828;SDS011;10075;50.924;4.396;2024-03-08T04:37:06;39.60;;;24.97;;
19828;SDS011;10075;50.924;4.396;2024-03-08T04:39:37;42.87;;;26.13;;
19828;SDS011;10075;50.924;4.396;2024-03-08T04:42:04;38.93;;;24.47;;
19828;SDS011;10075;50.924;4.396;2024-03-08T04:44:35;36.20;;;25.43;;
19828;SDS011;10075;50.924;4.396;2024-03-08T04:47:03;38.67;;;25.37;;
19828;SDS011;10075;50.924;4.396;2024-03-08T04:49:31;39.37;;;25.43;;
19828;SDS011;10075;50.924;4.396;2024-03-08T04:52:00;38.27;;;25.47;;
19828;SDS011;10075;50.924;4.396;2024-03-08T04:54:28;37.83;;;24.87;;
19828;SDS011;10075;50.924;4.396;2024-03-08T04:56:56;36.43;;;25.07;;
19828;SDS011;10075;50.924;4.396;2024-03-08T04:59:25;43.40;;;25.80;;
19828;SDS011;10075;50.924;4.396;2024-03-08T05:01:52;37.07;;;25.47;;
19828;SDS011;10075;50.924;4.396;2024-03-08T05:04:19;39.87;;;26.53;;
19828;SDS011;10075;50.924;4.396;2024-03-08T05:06:47;37.73;;;24.17;;
19828;SDS011;10075;50.924;4.396;2024-03-08T05:09:17;37.57;;;25.87;;
19828;SDS011;10075;50.924;4.396;2024-03-08T05:11:45;39.80;;;26.03;;
19828;SDS011;10075;50.924;4.396;2024-03-08T05:14:14;36.13;;;24.33;;
19828;SDS011;10075;50.924;4.396;2024-03-08T05:16:43;36.23;;;24.93;;
19828;SDS011;10075;50.924;4.396;2024-03-08T05:19:13;41.37;;;24.97;;
19828;SDS011;10075;50.924;4.396;2024-03-08T05:21:41;40.20;;;25.67;;
19828;SDS011;10075;50.924;4.396;2024-03-08T05:24:09;38.43;;;26.00;;
19828;SDS011;10075;50.924;4.396;2024-03-08T05:26:36;38.40;;;25.40;;
19828;SDS011;10075;50.924;4.396;2024-03-08T05:29:03;45.63;;;24.73;;
19828;SDS011;10075;50.924;4.396;2024-03-08T05:31:32;40.77;;;25.73;;
19828;SDS011;10075;50.924;4.396;2024-03-08T05:34:11;41.03;;;24.07;;
19828;SDS011;10075;50.924;4.396;2024-03-08T05:36:39;38.63;;;25.50;;
19828;SDS011;10075;50.924;4.396;2024-03-08T05:39:06;41.03;;;25.87;;
19828;SDS011;10075;50.924;4.396;2024-03-08T05:41:36;37.63;;;25.43;;
19828;SDS011;10075;50.924;4.396;2024-03-08T05:44:03;40.13;;;25.20;;
19828;SDS011;10075;50.924;4.396;2024-03-08T05:46:32;35.90;;;24.97;;
19828;SDS011;10075;50.924;4.396;2024-03-08T05:48:59;38.03;;;25.60;;
19828;SDS011;10075;50.924;4.396;2024-03-08T05:51:30;37.63;;;24.50;;
19828;SDS011;10075;50.924;4.396;2024-03-08T05:53:59;39.23;;;26.30;;
19828;SDS011;10075;50.924;4.396;2024-03-08T05:56:28;45.47;;;25.37;;
19828;SDS011;10075;50.924;4.396;2024-03-08T05:58:55;39.43;;;25.77;;
19828;SDS011;10075;50.924;4.396;2024-03-08T06:01:23;38.93;;;26.13;;
19828;SDS011;10075;50.924;4.396;2024-03-08T06:03:51;42.10;;;24.87;;
19828;SDS011;10075;50.924;4.396;2024-03-08T06:06:20;37.50;;;25.77;;
19828;SDS011;10075;50.924;4.396;2024-03-08T06:08:48;40.73;;;26.23;;
19828;SDS011;10075;50.924;4.396;2024-03-08T06:11:15;40.17;;;25.00;;
19828;SDS011;10075;50.924;4.396;2024-03-08T06:13:43;44.90;;;25.20;;
19828;SDS011;10075;50.924;4.396;2024-03-08T06:16:11;41.00;;;25.17;;
19828;SDS011;10075;50.924;4.396;2024-03-08T06:18:38;39.77;;;24.97;;
19828;SDS011;10075;50.924;4.396;2024-03-08T06:21:07;34.70;;;24.13;;
19828;SDS011;10075;50.924;4.396;2024-03-08T06:23:36;42.23;;;26.20;;
19828;SDS011;10075;50.924;4.396;2024-03-08T06:26:13;37.70;;;26.13;;
19828;SDS011;10075;50.924;4.396;2024-03-08T06:28:40;39.50;;;24.97;;
19828;SDS011;10075;50.924;4.396;2024-03-08T06:31:07;37.17;;;24.43;;
19828;SDS011;10075;50.924;4.396;2024-03-08T06:33:35;38.17;;;25.07;;
19828;SDS011;10075;50.924;4.396;2024-03-08T06:36:03;38.37;;;25.57;;
19828;SDS011;10075;50.924;4.396;2024-03-08T06:38:32;40.67;;;26.33;;
19828;SDS011;10075;50.924;4.396;2024-03-08T06:40:59;40.20;;;25.37;;
19828;SDS011;10075;50.924;4.396;2024-03-08T06:43:29;40.47;;;26.50;;
19828;SDS011;10075;50.924;4.396;2024-03-08T06:45:59;42.43;;;26.23;;
19828;SDS011;10075;50.924;4.396;2024-03-08T06:48:26;39.73;;;24.90;;
19828;SDS011;10075;50.924;4.396;2024-03-08T06:50:54;39.33;;;26.73;;
19828;SDS011;10075;50.924;4.396;2024-03-08T06:53:21;43.70;;;25.90;;
19828;SDS011;10075;50.924;4.396;2024-03-08T06:55:51;43.70;;;25.83;;
19828;SDS011;10075;50.924;4.396;2024-03-08T06:58:18;40.93;;;24.83;;
19828;SDS011;10075;50.924;4.396;2024-03-08T07:00:46;38.43;;;25.57;;
19828;SDS011;10075;50.924;4.396;2024-03-08T07:03:17;39.53;;;25.40;;
19828;SDS011;10075;50.924;4.396;2024-03-08T07:05:44;38.10;;;24.33;;
19828;SDS011;10075;50.924;4.396;2024-03-08T07:08:11;39.27;;;25.00;;
19828;SDS011;10075;50.924;4.396;2024-03-08T07:10:39;41.03;;;24.17;;
19828;SDS011;10075;50.924;4.396;2024-03-08T07:13:08;38.43;;;24.63;;
19828;SDS011;10075;50.924;4.396;2024-03-08T07:15:35;36.27;;;24.60;;
19828;SDS011;10075;50.924;4.396;2024-03-08T07:18:02;41.77;;;24.93;;
19828;SDS011;10075;50.924;4.396;2024-03-08T07:20:30;40.13;;;24.70;;
19828;SDS011;10075;50.924;4.396;2024-03-08T07:22:57;37.57;;;24.13;;
19828;SDS011;10075;50.924;4.396;2024-03-08T07:25:24;37.70;;;22.87;;
19828;SDS011;10075;50.924;4.396;2024-03-08T07:27:54;38.00;;;23.73;;
19828;SDS011;10075;50.924;4.396;2024-03-08T07:30:24;37.77;;;23.97;;
19828;SDS011;10075;50.924;4.396;2024-03-08T07:33:09;37.53;;;22.63;;
19828;SDS011;10075;50.924;4.396;2024-03-08T07:35:37;39.30;;;23.33;;
19828;SDS011;10075;50.924;4.396;2024-03-08T07:38:04;35.37;;;22.67;;
19828;SDS011;10075;50.924;4.396;2024-03-08T07:40:31;37.57;;;23.83;;
19828;SDS011;10075;50.924;4.396;2024-03-08T07:43:01;38.40;;;24.00;;
19828;SDS011;10075;50.924;4.396;2024-03-08T07:45:30;35.57;;;22.03;;
19828;SDS011;10075;50.924;4.396;2024-03-08T07:47:57;38.97;;;22.83;;
19828;SDS011;10075;50.924;4.396;2024-03-08T07:50:24;37.67;;;22.67;;
19828;SDS011;10075;50.924;4.396;2024-03-08T07:52:51;35.87;;;23.33;;
19828;SDS011;10075;50.924;4.396;2024-03-08T07:55:18;34.63;;;21.63;;
19828;SDS011;10075;50.924;4.396;2024-03-08T07:59:41;33.50;;;22.20;;
19828;SDS011;10075;50.924;4.396;2024-03-08T08:02:08;35.13;;;21.93;;
19828;SDS011;10075;50.924;4.396;2024-03-08T08:04:36;39.63;;;22.90;;
19828;SDS011;10075;50.924;4.396;2024-03-08T08:07:04;35.43;;;22.10;;
19828;SDS011;10075;50.924;4.396;2024-03-08T08:09:32;32.73;;;20.80;;
19828;SDS011;10075;50.924;4.396;2024-03-08T08:12:00;30.00;;;20.83;;
19828;SDS011;10075;50.924;4.396;2024-03-08T08:14:28;34.27;;;21.67;;
19828;SDS011;10075;50.924;4.396;2024-03-08T08:16:57;32.40;;;21.10;;
19828;SDS011;10075;50.924;4.396;2024-03-08T08:19:28;35.00;;;22.10;;
19828;SDS011;10075;50.924;4.396;2024-03-08T08:21:57;33.73;;;21.30;;
19828;SDS011;10075;50.924;4.396;2024-03-08T08:24:24;30.17;;;20.17;;
19828;SDS011;10075;50.924;4.396;2024-03-08T08:26:51;35.10;;;21.83;;
19828;SDS011;10075;50.924;4.396;2024-03-08T08:29:18;36.50;;;21.30;;
19828;SDS011;10075;50.924;4.396;2024-03-08T08:31:46;31.67;;;20.63;;
19828;SDS011;10075;50.924;4.396;2024-03-08T08:34:16;31.57;;;20.73;;
19828;SDS011;10075;50.924;4.396;2024-03-08T08:36:44;34.00;;;21.30;;
19828;SDS011;10075;50.924;4.396;2024-03-08T08:39:11;30.40;;;19.47;;
19828;SDS011;10075;50.924;4.396;2024-03-08T08:41:38;32.63;;;20.43;;
19828;SDS011;10075;50.924;4.396;2024-03-08T08:44:06;31.90;;;20.27;;
19828;SDS011;10075;50.924;4.396;2024-03-08T08:46:35;32.70;;;20.83;;
19828;SDS011;10075;50.924;4.396;2024-03-08T08:49:03;32.10;;;20.27;;
19828;SDS011;10075;50.924;4.396;2024-03-08T08:51:31;35.30;;;20.73;;
19828;SDS011;10075;50.924;4.396;2024-03-08T08:53:59;30.40;;;18.47;;
19828;SDS011;10075;50.924;4.396;2024-03-08T08:56:26;29.10;;;18.57;;
19828;SDS011;10075;50.924;4.396;2024-03-08T08:58:53;28.43;;;19.90;;
19828;SDS011;10075;50.924;4.396;2024-03-08T09:01:20;29.73;;;19.47;;
19828;SDS011;10075;50.924;4.396;2024-03-08T09:03:47;28.60;;;19.23;;
19828;SDS011;10075;50.924;4.396;2024-03-08T09:06:15;28.97;;;19.90;;
19828;SDS011;10075;50.924;4.396;2024-03-08T09:08:44;31.57;;;19.57;;
19828;SDS011;10075;50.924;4.396;2024-03-08T09:11:12;31.00;;;19.03;;
19828;SDS011;10075;50.924;4.396;2024-03-08T09:13:39;30.27;;;18.50;;
19828;SDS011;10075;50.924;4.396;2024-03-08T09:16:06;29.30;;;18.43;;
19828;SDS011;10075;50.924;4.396;2024-03-08T09:18:35;26.57;;;17.90;;
19828;SDS011;10075;50.924;4.396;2024-03-08T09:21:03;28.20;;;18.93;;
19828;SDS011;10075;50.924;4.396;2024-03-08T09:23:34;29.17;;;17.93;;
19828;SDS011;10075;50.924;4.396;2024-03-08T09:26:03;29.07;;;18.80;;
19828;SDS011;10075;50.924;4.396;2024-03-08T09:28:31;25.77;;;18.13;;
19828;SDS011;10075;50.924;4.396;2024-03-08T09:30:58;27.87;;;18.40;;
19828;SDS011;10075;50.924;4.396;2024-03-08T09:33:26;24.17;;;17.70;;
19828;SDS011;10075;50.924;4.396;2024-03-08T09:35:54;27.00;;;17.80;;
19828;SDS011;10075;50.924;4.396;2024-03-08T09:38:22;26.90;;;17.87;;
19828;SDS011;10075;50.924;4.396;2024-03-08T09:40:50;28.03;;;17.50;;
19828;SDS011;10075;50.924;4.396;2024-03-08T09:43:19;24.90;;;17.53;;
19828;SDS011;10075;50.924;4.396;2024-03-08T09:45:46;23.37;;;16.70;;
19828;SDS011;10075;50.924;4.396;2024-03-08T09:48:16;24.13;;;16.10;;
19828;SDS011;10075;50.924;4.396;2024-03-08T09:50:45;25.17;;;16.23;;
19828;SDS011;10075;50.924;4.396;2024-03-08T09:53:13;24.07;;;15.37;;
19828;SDS011;10075;50.924;4.396;2024-03-08T09:55:40;23.37;;;16.00;;
19828;SDS011;10075;50.924;4.396;2024-03-08T09:58:11;27.33;;;17.00;;
19828;SDS011;10075;50.924;4.396;2024-03-08T10:01:03;27.17;;;15.90;;
19828;SDS011;10075;50.924;4.396;2024-03-08T10:03:31;24.90;;;15.47;;
19828;SDS011;10075;50.924;4.396;2024-03-08T10:05:58;21.90;;;16.17;;
19828;SDS011;10075;50.924;4.396;2024-03-08T10:08:26;21.40;;;14.93;;
19828;SDS011;10075;50.924;4.396;2024-03-08T10:10:54;29.80;;;15.90;;
19828;SDS011;10075;50.924;4.396;2024-03-08T10:13:23;24.17;;;16.07;;
19828;SDS011;10075;50.924;4.396;2024-03-08T10:15:53;23.87;;;16.17;;
19828;SDS011;10075;50.924;4.396;2024-03-08T10:18:21;21.83;;;15.40;;
19828;SDS011;10075;50.924;4.396;2024-03-08T10:21:01;23.60;;;15.77;;
19828;SDS011;10075;50.924;4.396;2024-03-08T10:23:30;23.37;;;16.40;;
19828;SDS011;10075;50.924;4.396;2024-03-08T10:26:03;23.90;;;15.57;;
19828;SDS011;10075;50.924;4.396;2024-03-08T10:28:36;25.03;;;16.23;;
19828;SDS011;10075;50.924;4.396;2024-03-08T10:31:03;20.97;;;14.27;;
19828;SDS011;10075;50.924;4.396;2024-03-08T10:33:32;21.73;;;14.67;;
19828;SDS011;10075;50.924;4.396;2024-03-08T10:35:59;22.50;;;13.40;;
19828;SDS011;10075;50.924;4.396;2024-03-08T10:38:28;22.37;;;15.40;;
19828;SDS011;10075;50.924;4.396;2024-03-08T10:40:59;21.43;;;14.47;;
19828;SDS011;10075;50.924;4.396;2024-03-08T10:43:28;22.97;;;15.07;;
19828;SDS011;10075;50.924;4.396;2024-03-08T10:46:05;20.75;;;14.45;;
19828;SDS011;10075;50.924;4.396;2024-03-08T10:48:44;21.83;;;15.47;;
19828;SDS011;10075;50.924;4.396;2024-03-08T10:51:13;23.30;;;15.73;;
19828;SDS011;10075;50.924;4.396;2024-03-08T10:53:41;22.20;;;15.20;;
19828;SDS011;10075;50.924;4.396;2024-03-08T10:56:10;21.63;;;15.27;;
19828;SDS011;10075;50.924;4.396;2024-03-08T10:58:39;20.45;;;14.50;;
19828;SDS011;10075;50.924;4.396;2024-03-08T11:01:09;25.45;;;15.40;;
19828;SDS011;10075;50.924;4.396;2024-03-08T11:03:47;25.13;;;15.77;;
19828;SDS011;10075;50.924;4.396;2024-03-08T11:06:18;23.23;;;15.50;;
19828;SDS011;10075;50.924;4.396;2024-03-08T11:08:49;24.57;;;15.17;;
19828;SDS011;10075;50.924;4.396;2024-03-08T11:11:28;24.67;;;15.60;;
19828;SDS011;10075;50.924;4.396;2024-03-08T11:13:59;20.57;;;14.13;;
19828;SDS011;10075;50.924;4.396;2024-03-08T11:16:37;20.23;;;14.23;;
19828;SDS011;10075;50.924;4.396;2024-03-08T11:19:24;25.60;;;15.27;;
19828;SDS011;10075;50.924;4.396;2024-03-08T11:22:00;20.23;;;14.13;;
19828;SDS011;10075;50.924;4.396;2024-03-08T11:24:36;21.25;;;14.32;;
19828;SDS011;10075;50.924;4.396;2024-03-08T11:27:07;20.55;;;14.40;;
19828;SDS011;10075;50.924;4.396;2024-03-08T11:29:35;22.63;;;13.80;;
19828;SDS011;10075;50.924;4.396;2024-03-08T11:32:06;20.67;;;14.07;;
19828;SDS011;10075;50.924;4.396;2024-03-08T11:34:36;26.50;;;15.13;;
19828;SDS011;10075;50.924;4.396;2024-03-08T11:37:04;27.27;;;15.10;;
19828;SDS011;10075;50.924;4.396;2024-03-08T11:39:35;20.60;;;13.88;;
19828;SDS011;10075;50.924;4.396;2024-03-08T11:42:03;20.13;;;14.25;;
19828;SDS011;10075;50.924;4.396;2024-03-08T11:44:31;19.47;;;13.67;;
19828;SDS011;10075;50.924;4.396;2024-03-08T11:46:59;21.50;;;14.33;;
19828;SDS011;10075;50.924;4.396;2024-03-08T11:49:26;20.05;;;13.77;;
19828;SDS011;10075;50.924;4.396;2024-03-08T11:51:54;20.87;;;14.20;;
19828;SDS011;10075;50.924;4.396;2024-03-08T11:54:22;19.33;;;13.80;;
19828;SDS011;10075;50.924;4.396;2024-03-08T11:56:51;21.30;;;13.50;;
19828;SDS011;10075;50.924;4.396;2024-03-08T11:59:20;18.45;;;13.45;;
19828;SDS011;10075;50.924;4.396;2024-03-08T12:01:59;19.15;;;12.65;;
19828;SDS011;10075;50.924;4.396;2024-03-08T12:04:28;20.30;;;13.45;;
19828;SDS011;10075;50.924;4.396;2024-03-08T12:06:57;19.55;;;14.23;;
19828;SDS011;10075;50.924;4.396;2024-03-08T12:09:26;21.55;;;13.45;;
19828;SDS011;10075;50.924;4.396;2024-03-08T12:11:53;20.08;;;14.05;;
19828;SDS011;10075;50.924;4.396;2024-03-08T12:14:21;17.77;;;13.82;;
19828;SDS011;10075;50.924;4.396;2024-03-08T12:16:50;19.25;;;13.18;;
19828;SDS011;10075;50.924;4.396;2024-03-08T12:19:18;20.30;;;13.48;;
19828;SDS011;10075;50.924;4.396;2024-03-08T12:21:45;23.03;;;13.27;;
19828;SDS011;10075;50.924;4.396;2024-03-08T12:27:21;19.60;;;13.10;;
19828;SDS011;10075;50.924;4.396;2024-03-08T12:29:48;18.88;;;13.15;;
19828;SDS011;10075;50.924;4.396;2024-03-08T12:32:16;19.65;;;14.43;;
19828;SDS011;10075;50.924;4.396;2024-03-08T12:34:43;20.10;;;13.18;;
19828;SDS011;10075;50.924;4.396;2024-03-08T12:37:19;19.57;;;13.43;;
19828;SDS011;10075;50.924;4.396;2024-03-08T12:39:46;20.17;;;13.87;;
19828;SDS011;10075;50.924;4.396;2024-03-08T12:42:13;19.25;;;13.43;;
19828;SDS011;10075;50.924;4.396;2024-03-08T12:44:41;23.30;;;14.05;;
19828;SDS011;10075;50.924;4.396;2024-03-08T12:47:08;19.30;;;13.00;;
19828;SDS011;10075;50.924;4.396;2024-03-08T12:49:35;18.90;;;13.50;;
19828;SDS011;10075;50.924;4.396;2024-03-08T12:52:02;20.57;;;13.57;;
19828;SDS011;10075;50.924;4.396;2024-03-08T12:54:35;20.08;;;13.05;;
19828;SDS011;10075;50.924;4.396;2024-03-08T12:57:02;23.35;;;14.88;;
19828;SDS011;10075;50.924;4.396;2024-03-08T12:59:29;21.63;;;14.30;;
19828;SDS011;10075;50.924;4.396;2024-03-08T13:01:58;19.20;;;13.02;;
19828;SDS011;10075;50.924;4.396;2024-03-08T13:04:25;20.15;;;13.02;;
19828;SDS011;10075;50.924;4.396;2024-03-08T13:06:56;20.15;;;13.77;;
19828;SDS011;10075;50.924;4.396;2024-03-08T13:09:23;19.45;;;13.32;;
19828;SDS011;10075;50.924;4.396;2024-03-08T13:11:52;18.48;;;12.65;;
19828;SDS011;10075;50.924;4.396;2024-03-08T13:14:20;19.75;;;12.93;;
19828;SDS011;10075;50.924;4.396;2024-03-08T13:16:47;18.67;;;12.80;;
19828;SDS011;10075;50.924;4.396;2024-03-08T13:19:17;20.33;;;13.95;;
19828;SDS011;10075;50.924;4.396;2024-03-08T13:21:46;20.42;;;13.32;;
19828;SDS011;10075;50.924;4.396;2024-03-08T13:24:14;19.20;;;12.93;;
19828;SDS011;10075;50.924;4.396;2024-03-08T13:26:41;20.42;;;13.73;;
19828;SDS011;10075;50.924;4.396;2024-03-08T13:29:09;18.92;;;13.45;;
19828;SDS011;10075;50.924;4.396;2024-03-08T13:31:36;20.80;;;14.15;;
19828;SDS011;10075;50.924;4.396;2024-03-08T13:34:04;18.90;;;13.63;;
19828;SDS011;10075;50.924;4.396;2024-03-08T13:36:33;19.40;;;13.63;;
19828;SDS011;10075;50.924;4.396;2024-03-08T13:39:07;20.45;;;13.85;;
19828;SDS011;10075;50.924;4.396;2024-03-08T13:41:40;17.42;;;12.80;;
19828;SDS011;10075;50.924;4.396;2024-03-08T13:44:08;16.33;;;12.43;;
19828;SDS011;10075;50.924;4.396;2024-03-08T13:46:35;19.65;;;13.27;;
19828;SDS011;10075;50.924;4.396;2024-03-08T13:49:03;20.10;;;12.68;;
19828;SDS011;10075;50.924;4.396;2024-03-08T13:51:36;18.42;;;13.95;;
19828;SDS011;10075;50.924;4.396;2024-03-08T13:54:03;19.15;;;13.40;;
19828;SDS011;10075;50.924;4.396;2024-03-08T13:56:32;17.63;;;12.95;;
19828;SDS011;10075;50.924;4.396;2024-03-08T13:58:59;18.77;;;12.40;;
19828;SDS011;10075;50.924;4.396;2024-03-08T14:01:27;20.73;;;13.98;;
19828;SDS011;10075;50.924;4.396;2024-03-08T14:03:55;21.70;;;13.05;;
19828;SDS011;10075;50.924;4.396;2024-03-08T14:06:22;18.52;;;13.00;;
19828;SDS011;10075;50.924;4.396;2024-03-08T14:08:52;18.48;;;13.35;;
19828;SDS011;10075;50.924;4.396;2024-03-08T14:11:22;20.33;;;13.52;;
19828;SDS011;10075;50.924;4.396;2024-03-08T14:13:49;22.08;;;13.90;;
19828;SDS011;10075;50.924;4.396;2024-03-08T14:16:16;19.33;;;13.07;;
19828;SDS011;10075;50.924;4.396;2024-03-08T14:18:43;19.27;;;12.70;;
19828;SDS011;10075;50.924;4.396;2024-03-08T14:21:10;21.02;;;13.65;;
19828;SDS011;10075;50.924;4.396;2024-03-08T14:23:37;19.95;;;13.85;;
19828;SDS011;10075;50.924;4.396;2024-03-08T14:26:08;18.65;;;13.23;;
19828;SDS011;10075;50.924;4.396;2024-03-08T14:28:36;21.70;;;12.77;;
19828;SDS011;10075;50.924;4.396;2024-03-08T14:31:04;18.73;;;13.10;;
19828;SDS011;10075;50.924;4.396;2024-03-08T14:33:36;19.70;;;13.75;;